Time;durP1;ratioP1;P1;durP2;ratioP2;P2;SDS_P1;SDS_P2;PMS_P1;PMS_P2;Temp;Humidity;BMP_temperature;BMP_pressure;BME280_temperature;BME280_humidity;BME280_pressure;Samples;Min_cycle;Max_cycle;Signal;HPM_P1;HPM_P2
2020/12/18 00:00:39;;;;;;;40.03;18.80;;;;;;;4.42;83.47;101444.95;5376069;55;21236;-83
2020/12/18 00:05:55;;;;;;;57.58;25.08;;;;;;;4.44;83.48;101447.48;5286825;54;1134221;-83
2020/12/18 00:11:01;;;;;;;44.07;20.73;;;;;;;4.47;83.39;101442.98;5289104;54;1140463;-83
2020/12/18 00:16:06;;;;;;;43.80;21.17;;;;;;;4.50;83.65;101440.71;5278447;55;1140297;-84
2020/12/18 00:21:20;;;;;;;31.80;13.85;;;;;;;4.51;84.06;101443.27;5254051;55;1140428;-83
2020/12/18 00:26:26;;;;;;;51.30;22.00;;;;;;;4.59;84.42;101446.45;5255485;55;1140463;-83
2020/12/18 00:31:31;;;;;;;32.30;14.17;;;;;;;4.65;84.04;101442.75;5238498;54;1140399;-83
2020/12/18 00:36:37;;;;;;;21.43;11.60;;;;;;;4.67;84.30;101452.72;5374694;55;21145;-83
2020/12/18 00:41:43;;;;;;;43.50;20.97;;;;;;;4.67;84.40;101457.10;5275749;55;1136315;-83
2020/12/18 00:46:49;;;;;;;27.33;13.80;;;;;;;4.66;84.17;101459.32;5268136;54;1140417;-82
2020/12/18 00:51:55;;;;;;;44.37;19.30;;;;;;;4.68;84.62;101466.22;5367523;55;21122;-83
2020/12/18 00:57:01;;;;;;;25.70;11.90;;;;;;;4.68;84.47;101467.53;5377805;55;21435;-83
2020/12/18 01:02:08;;;;;;;37.07;16.27;;;;;;;4.73;85.01;101459.50;5376963;55;21246;-83
2020/12/18 01:07:14;;;;;;;37.83;18.93;;;;;;;4.75;84.87;101468.13;5361129;55;21128;-83
2020/12/18 01:12:20;;;;;;;33.83;16.77;;;;;;;4.77;84.73;101480.27;5357960;55;21117;-83
2020/12/18 01:17:26;;;;;;;37.00;19.10;;;;;;;4.80;84.59;101479.30;5355665;55;21459;-83
2020/12/18 01:22:32;;;;;;;36.53;18.97;;;;;;;4.83;84.48;101488.36;5357564;55;21121;-83
2020/12/18 01:27:38;;;;;;;32.80;15.93;;;;;;;4.79;84.47;101490.23;5291359;54;1134247;-83
2020/12/18 01:32:44;;;;;;;27.13;11.37;;;;;;;4.78;84.62;101495.53;5251054;54;1140564;-83
2020/12/18 01:37:50;;;;;;;28.27;13.67;;;;;;;4.78;84.68;101497.70;5253434;54;1140673;-83
2020/12/18 01:42:56;;;;;;;42.20;18.70;;;;;;;4.78;84.69;101499.02;5310125;54;1138476;-83
2020/12/18 01:48:03;;;;;;;41.43;19.43;;;;;;;4.81;84.65;101499.36;5333251;55;1140478;-83
2020/12/18 01:53:11;;;;;;;32.40;16.30;;;;;;;4.79;84.50;101495.48;5251732;54;1140383;-82
2020/12/18 01:58:19;;;;;;;35.03;17.63;;;;;;;4.77;84.57;101492.52;5313353;54;1140331;-83
2020/12/18 02:03:24;;;;;;;26.20;12.80;;;;;;;4.75;84.76;101489.09;5369985;55;21108;-83
2020/12/18 02:08:33;;;;;;;33.80;16.83;;;;;;;4.72;84.97;101491.86;5299655;54;1136276;-83
2020/12/18 02:13:58;;;;;;;36.80;18.30;;;;;;;4.71;84.72;101496.70;5047074;57;1140882;-84
2020/12/18 02:19:09;;;;;;;28.33;15.47;;;;;;;4.73;85.09;101500.12;5109687;57;1136484;-84
2020/12/18 02:24:25;;;;;;;36.37;17.90;;;;;;;4.73;85.09;101500.12;5155149;57;21129;-83
2020/12/18 02:29:31;;;;;;;41.70;19.83;;;;;;;4.70;84.99;101505.47;5126922;57;21148;-83
2020/12/18 02:34:39;;;;;;;33.10;16.90;;;;;;;4.71;85.09;101510.66;5143386;57;21117;-83
2020/12/18 02:39:46;;;;;;;26.33;14.63;;;;;;;4.74;85.36;101514.90;5163650;57;21147;-83
2020/12/18 02:44:54;;;;;;;36.87;18.23;;;;;;;4.74;85.24;101513.59;5283477;55;21078;-83
2020/12/18 02:50:01;;;;;;;33.20;15.37;;;;;;;4.76;85.08;101514.39;5367410;55;21129;-83
2020/12/18 02:55:11;;;;;;;27.90;15.03;;;;;;;4.76;85.10;101517.87;5360109;55;21555;-83
2020/12/18 03:00:18;;;;;;;35.27;18.20;;;;;;;4.74;85.05;101527.55;5375188;54;21239;-83
2020/12/18 03:05:26;;;;;;;30.47;17.43;;;;;;;4.73;85.24;101528.48;5385613;55;21207;-83
2020/12/18 03:10:36;;;;;;;31.37;16.60;;;;;;;4.74;85.16;101534.55;5338145;55;21503;-83
2020/12/18 03:15:42;;;;;;;30.10;13.73;;;;;;;4.73;85.15;101527.63;5351418;54;1136291;-83
2020/12/18 03:20:58;;;;;;;33.50;15.93;;;;;;;4.70;85.17;101531.67;5268924;55;1140577;-83
2020/12/18 03:26:12;;;;;;;37.75;18.62;;;;;;;4.70;85.15;101531.22;5174665;56;1140309;-83
2020/12/18 03:31:22;;;;;;;32.27;15.83;;;;;;;4.66;85.15;101527.45;5240636;56;21245;-83
2020/12/18 03:36:29;;;;;;;36.27;17.80;;;;;;;4.64;84.91;101526.19;5248772;56;21139;-83
2020/12/18 03:41:36;;;;;;;35.13;17.23;;;;;;;4.59;85.02;101540.76;5235378;56;21127;-83
2020/12/18 03:46:42;;;;;;;142.53;102.77;;;;;;;4.55;84.96;101529.16;5257724;56;21217;-83
2020/12/18 03:51:52;;;;;;;77.32;48.35;;;;;;;4.56;85.14;101539.59;5235193;55;1140657;-83
2020/12/18 03:56:59;;;;;;;77.73;55.60;;;;;;;4.53;85.05;101546.23;5270909;55;1140417;-83
2020/12/18 04:02:09;;;;;;;46.70;31.03;;;;;;;4.53;85.23;101551.94;5272963;55;21123;-83
2020/12/18 04:07:17;;;;;;;39.93;22.10;;;;;;;4.54;85.28;101556.27;5331393;55;21136;-83
2020/12/18 04:12:22;;;;;;;190.20;62.17;;;;;;;4.54;85.37;101554.50;5305188;55;1136355;-82
2020/12/18 04:17:29;;;;;;;240.60;58.83;;;;;;;4.56;85.36;101557.92;5237806;55;1142821;-83
2020/12/18 04:22:37;;;;;;;64.77;19.40;;;;;;;4.59;85.30;101559.09;5242110;55;1142875;-83
2020/12/18 04:27:44;;;;;;;63.50;24.33;;;;;;;4.57;85.43;101555.70;5295717;55;1138373;-83
2020/12/18 04:32:50;;;;;;;36.27;18.10;;;;;;;4.58;85.42;101561.31;5226569;55;1140483;-83
2020/12/18 04:37:56;;;;;;;68.80;24.37;;;;;;;4.60;85.45;101553.41;5264421;55;1140390;-83
2020/12/18 04:43:04;;;;;;;179.67;45.30;;;;;;;4.60;85.49;101551.64;5296485;55;21426;-83
2020/12/18 04:48:10;;;;;;;86.07;30.57;;;;;;;4.60;85.57;101555.56;5349817;55;21132;-83
2020/12/18 04:53:19;;;;;;;38.00;17.60;;;;;;;4.59;85.56;101556.93;5319593;55;1136266;-83
2020/12/18 04:58:30;;;;;;;58.83;26.15;;;;;;;4.57;85.81;101554.85;5225280;55;1140608;-83
2020/12/18 05:03:37;;;;;;;36.70;17.67;;;;;;;4.56;85.72;101563.62;5286405;55;1140463;-83
2020/12/18 05:08:44;;;;;;;16.53;8.47;;;;;;;4.57;85.84;101570.57;5339648;55;21509;-83
2020/12/18 05:13:53;;;;;;;35.07;17.37;;;;;;;4.57;86.14;101579.28;5307178;55;21114;-83
2020/12/18 05:19:05;;;;;;;33.10;16.83;;;;;;;4.57;85.82;101578.43;5346798;55;21150;-83
2020/12/18 05:24:14;;;;;;;31.17;17.65;;;;;;;4.58;85.83;101570.48;5350995;55;21151;-84
2020/12/18 05:29:22;;;;;;;27.33;14.93;;;;;;;4.57;85.84;101578.43;5350897;55;21111;-84
2020/12/18 05:34:48;;;;;;;36.93;18.53;;;;;;;4.58;85.84;101577.52;5355654;55;21728;-83
2020/12/18 05:39:59;;;;;;;26.60;15.33;;;;;;;4.57;85.81;101576.66;5348742;55;21474;-84
2020/12/18 05:45:22;;;;;;;42.80;21.83;;;;;;;4.60;85.83;101584.39;5150561;57;21246;-83
2020/12/18 05:50:35;;;;;;;35.67;17.00;;;;;;;4.59;85.80;101584.44;5139881;57;21157;-84
2020/12/18 05:55:43;;;;;;;16.93;7.90;;;;;;;4.58;85.74;101582.77;5125416;57;1136277;-83
2020/12/18 06:00:50;;;;;;;35.03;16.87;;;;;;;4.59;85.90;101593.16;5001431;56;1138662;-83
2020/12/18 06:06:12;;;;;;;36.33;17.20;;;;;;;4.59;85.75;101592.30;4863381;59;1140478;-83
2020/12/18 06:11:21;;;;;;;29.20;15.80;;;;;;;4.61;85.76;101606.20;4916167;60;21176;-84
2020/12/18 06:16:49;;;;;;;34.90;15.00;;;;;;;4.58;85.92;101607.16;4898467;60;1136368;-83
2020/12/18 06:21:59;;;;;;;27.13;12.63;;;;;;;4.60;86.02;101620.22;4818508;59;1140463;-83
2020/12/18 06:27:09;;;;;;;23.20;11.23;;;;;;;4.64;85.99;101623.13;4846242;59;1140588;-83
2020/12/18 06:32:32;;;;;;;31.50;15.53;;;;;;;4.65;86.09;101633.16;4914129;60;21203;-83
2020/12/18 06:37:59;;;;;;;16.80;8.10;;;;;;;4.65;86.14;101630.09;4872295;59;1136466;-83
2020/12/18 06:43:07;;;;;;;16.50;8.50;;;;;;;4.66;86.29;101637.04;4954734;57;1138366;-83
2020/12/18 06:48:30;;;;;;;28.47;15.57;;;;;;;4.65;86.31;101640.57;5161463;56;1138132;-83
2020/12/18 06:53:40;;;;;;;31.27;14.50;;;;;;;4.64;86.05;101651.95;5026402;58;21166;-83
2020/12/18 06:58:50;;;;;;;35.33;16.57;;;;;;;4.59;86.05;101653.42;4982597;58;1136448;-83
2020/12/18 07:03:55;;;;;;;57.00;23.97;;;;;;;4.57;86.01;101646.09;4969412;58;1140532;-83
2020/12/18 07:09:03;;;;;;;99.90;33.50;;;;;;;4.60;86.02;101656.89;4980440;58;1138554;-83
2020/12/18 07:14:20;;;;;;;24.43;11.93;;;;;;;4.60;86.13;101665.61;4923524;60;21525;-83
2020/12/18 07:19:23;;;;;;;29.82;16.75;;;;;;;4.60;86.58;101667.37;4923575;60;21459;-83
2020/12/18 07:24:33;;;;;;;52.93;20.93;;;;;;;4.62;86.26;101682.59;5008135;59;21174;-83
2020/12/18 07:29:39;;;;;;;40.33;17.07;;;;;;;4.66;86.24;101683.35;4965516;59;21054;-83
2020/12/18 07:34:45;;;;;;;51.60;21.33;;;;;;;4.66;86.43;101684.20;5028580;58;21359;-83
2020/12/18 07:40:00;;;;;;;34.57;17.43;;;;;;;4.67;86.47;101679.37;5086315;58;21477;-83
2020/12/18 07:45:11;;;;;;;27.13;14.03;;;;;;;4.71;86.43;101679.67;5110343;57;21219;-83
2020/12/18 07:50:16;;;;;;;42.83;18.57;;;;;;;4.71;86.61;101677.05;5110188;58;21462;-83
2020/12/18 07:55:22;;;;;;;22.60;12.87;;;;;;;4.73;86.76;101678.31;5110446;58;21534;-83
2020/12/18 08:00:28;;;;;;;23.90;13.00;;;;;;;4.74;86.80;101674.30;5071638;57;1136357;-83
2020/12/18 08:05:34;;;;;;;71.30;26.82;;;;;;;4.78;86.85;101675.05;5013079;57;1140469;-83
2020/12/18 08:10:43;;;;;;;37.53;18.23;;;;;;;4.80;86.92;101682.41;5169813;56;1140489;-83
2020/12/18 08:15:49;;;;;;;32.67;16.40;;;;;;;4.86;86.75;101685.69;5167509;57;21154;-83
2020/12/18 08:20:57;;;;;;;27.07;12.83;;;;;;;4.91;86.70;101685.50;5215599;56;21278;-83
2020/12/18 08:26:04;;;;;;;53.27;22.37;;;;;;;4.96;86.99;101690.14;5189236;56;21111;-84
2020/12/18 08:31:11;;;;;;;50.90;22.80;;;;;;;4.98;86.53;101694.87;5218541;56;21158;-86
2020/12/18 08:36:17;;;;;;;27.97;14.43;;;;;;;4.99;86.47;101692.66;5110011;56;1136328;-86
2020/12/18 08:41:23;;;;;;;21.47;12.63;;;;;;;5.02;86.41;101699.56;5105275;56;1140431;-86
2020/12/18 08:46:35;;;;;;;57.67;22.90;;;;;;;5.03;86.30;101702.59;5052558;57;1140605;-85
2020/12/18 08:51:41;;;;;;;27.67;15.72;;;;;;;5.03;86.33;101713.93;5017653;57;1140587;-85
2020/12/18 08:56:47;;;;;;;51.83;22.30;;;;;;;5.05;86.36;101704.22;4978555;57;1140806;-86
2020/12/18 09:01:52;;;;;;;29.73;14.40;;;;;;;5.12;86.40;101706.17;5062616;57;1140537;-85
2020/12/18 09:06:58;;;;;;;26.23;14.33;;;;;;;5.14;86.27;101717.47;4999602;57;1140284;-85
2020/12/18 09:12:16;;;;;;;28.70;14.47;;;;;;;5.13;86.21;101713.14;5074070;57;1141012;-86
2020/12/18 09:17:21;;;;;;;20.03;11.77;;;;;;;5.16;86.23;101723.06;5159525;55;1140742;-86
2020/12/18 09:22:27;;;;;;;32.47;16.37;;;;;;;5.19;86.41;101728.20;5159042;55;1140608;-85
2020/12/18 09:27:32;;;;;;;31.70;15.40;;;;;;;5.29;86.76;101726.09;5163672;55;1140579;-85
2020/12/18 09:32:38;;;;;;;32.53;15.40;;;;;;;5.43;86.76;101726.45;5163110;55;1140793;-86
2020/12/18 09:37:45;;;;;;;25.00;13.60;;;;;;;5.52;86.35;101722.61;5178551;55;1140353;-86
2020/12/18 09:42:51;;;;;;;44.33;20.13;;;;;;;5.60;86.18;101727.12;5157609;55;1140583;-85
2020/12/18 09:47:57;;;;;;;40.07;18.27;;;;;;;5.68;86.12;101719.80;5160257;55;1140544;-86
2020/12/18 09:53:04;;;;;;;39.80;21.73;;;;;;;5.78;86.04;101726.44;5159707;56;1140742;-87
2020/12/18 09:58:09;;;;;;;63.87;28.30;;;;;;;5.87;85.89;101731.31;5182076;56;1140754;-84
2020/12/18 10:03:15;;;;;;;66.97;22.63;;;;;;;5.92;85.52;101718.05;5204504;56;1140467;-84
2020/12/18 10:08:20;;;;;;;439.20;149.47;;;;;;;5.95;85.37;101716.62;5162566;56;1140313;-84
2020/12/18 10:13:26;;;;;;;101.67;27.20;;;;;;;5.97;85.50;101721.33;5148466;55;1144703;-84
2020/12/18 10:25:15;;;;;;;28.27;16.55;;;;;;;6.08;85.43;101718.30;5151177;55;1140345;-85
2020/12/18 10:30:21;;;;;;;70.13;22.23;;;;;;;6.15;85.11;101711.42;5147568;55;1140391;-83
2020/12/18 10:35:27;;;;;;;80.00;26.97;;;;;;;6.21;84.96;101710.33;5224540;55;1140442;-85
2020/12/18 10:40:33;;;;;;;50.33;20.07;;;;;;;6.25;84.80;101714.09;5163687;55;1140649;-85
2020/12/18 10:45:39;;;;;;;41.07;21.90;;;;;;;6.27;83.90;101714.85;5203972;55;1140349;-85
2020/12/18 10:50:44;;;;;;;45.03;20.97;;;;;;;6.22;84.15;101706.33;5264504;56;21143;-85
2020/12/18 10:55:50;;;;;;;53.83;24.30;;;;;;;6.22;83.87;101708.95;5264531;56;21156;-85
2020/12/18 11:00:56;;;;;;;94.97;38.00;;;;;;;6.22;84.03;101702.39;5264707;56;21147;-84
2020/12/18 11:06:07;;;;;;;54.30;21.70;;;;;;;6.22;84.20;101702.84;5264800;55;21156;-85
2020/12/18 11:11:16;;;;;;;227.23;62.33;;;;;;;6.26;84.09;101703.12;5268080;56;21132;-85
2020/12/18 11:16:22;;;;;;;80.93;26.93;;;;;;;6.32;84.22;101704.17;5278396;56;21177;-85
2020/12/18 11:21:30;;;;;;;40.13;19.60;;;;;;;6.31;83.96;101706.39;5198997;55;1136344;-85
2020/12/18 11:26:35;;;;;;;69.20;25.87;;;;;;;6.31;83.90;101707.25;5259164;55;1138404;-85
2020/12/18 11:31:41;;;;;;;56.73;21.10;;;;;;;6.25;83.64;101697.47;5274170;55;21128;-85
2020/12/18 11:36:47;;;;;;;41.90;19.93;;;;;;;6.25;83.64;101697.47;5193566;55;1136448;-85
2020/12/18 11:41:54;;;;;;;58.37;24.43;;;;;;;6.34;83.94;101695.77;5164232;55;1140546;-85
2020/12/18 11:47:00;;;;;;;58.97;25.40;;;;;;;6.33;83.70;101698.00;5222625;55;1138590;-85
2020/12/18 11:52:06;;;;;;;61.57;24.37;;;;;;;6.31;83.69;101695.89;5176712;56;1140541;-85
2020/12/18 11:57:11;;;;;;;32.93;18.85;;;;;;;6.34;83.80;101692.69;5172783;55;1140383;-85
2020/12/18 12:02:17;;;;;;;44.47;20.43;;;;;;;6.39;83.79;101693.81;5218490;55;1140540;-85
2020/12/18 12:07:22;;;;;;;40.67;20.43;;;;;;;6.45;83.74;101692.69;5279095;55;21202;-85
2020/12/18 12:12:28;;;;;;;30.50;15.87;;;;;;;6.47;83.41;101694.80;5274921;55;21072;-85
2020/12/18 12:17:34;;;;;;;37.37;18.37;;;;;;;6.43;83.26;101693.20;5265383;56;21263;-85
2020/12/18 12:22:40;;;;;;;84.57;37.70;;;;;;;6.44;83.49;101698.40;5265387;56;21255;-85
2020/12/18 12:27:46;;;;;;;54.17;26.33;;;;;;;6.47;83.63;101694.80;5265171;56;21274;-85
2020/12/18 12:32:54;;;;;;;58.30;25.10;;;;;;;6.49;83.52;101700.84;5265040;56;21287;-85
2020/12/18 12:37:59;;;;;;;40.87;21.97;;;;;;;6.53;83.32;101699.81;5264801;56;21585;-85
2020/12/18 12:43:04;;;;;;;62.83;28.80;;;;;;;6.57;83.43;101704.84;5264236;56;21283;-85
2020/12/18 12:48:10;;;;;;;51.20;23.70;;;;;;;6.58;83.29;101697.82;5265060;56;21268;-85
2020/12/18 12:53:16;;;;;;;58.77;33.97;;;;;;;6.58;83.03;101710.50;5211482;56;21167;-85
2020/12/18 12:58:22;;;;;;;40.47;20.00;;;;;;;6.59;82.92;101700.84;5173778;57;21485;-85
2020/12/18 13:03:28;;;;;;;33.33;17.40;;;;;;;6.58;82.62;101693.42;5148217;56;1136369;-85
2020/12/18 13:08:33;;;;;;;45.78;21.07;;;;;;;6.57;82.68;101691.70;5163613;55;1140469;-84
2020/12/18 13:13:39;;;;;;;37.67;20.00;;;;;;;6.55;82.61;101697.52;5167316;56;1140717;-85
2020/12/18 13:18:44;;;;;;;53.68;24.25;;;;;;;6.55;82.46;101700.14;5196622;55;1140601;-85
2020/12/18 13:23:50;;;;;;;58.23;26.23;;;;;;;6.55;82.74;101700.60;5178268;55;1140669;-85
2020/12/18 13:28:56;;;;;;;50.23;24.43;;;;;;;6.58;82.78;101693.88;5238480;55;1138366;-85
2020/12/18 13:34:02;;;;;;;57.37;26.27;;;;;;;6.63;82.82;101701.12;5279102;55;21442;-85
2020/12/18 13:39:08;;;;;;;48.70;22.83;;;;;;;6.63;82.81;101700.66;5278693;56;21594;-85
2020/12/18 13:44:13;;;;;;;54.17;27.83;;;;;;;6.63;82.51;101695.86;5278997;56;21116;-84
2020/12/18 13:49:19;;;;;;;47.50;22.10;;;;;;;6.63;82.51;101702.44;5279056;56;21195;-85
2020/12/18 13:54:24;;;;;;;113.13;44.87;;;;;;;6.61;82.51;101710.38;5278555;56;21213;-85
2020/12/18 13:59:30;;;;;;;78.53;29.77;;;;;;;6.59;82.80;101704.78;5278552;56;21490;-85
2020/12/18 14:04:35;;;;;;;38.80;20.37;;;;;;;6.59;82.53;101716.61;5278634;55;21133;-85
2020/12/18 14:09:41;;;;;;;35.20;21.60;;;;;;;6.62;82.44;101705.98;5278973;56;21176;-85
2020/12/18 14:14:47;;;;;;;85.73;42.60;;;;;;;6.73;82.31;101702.42;5278932;56;21144;-85
2020/12/18 14:19:52;;;;;;;60.77;32.50;;;;;;;6.77;82.15;101705.33;5278840;56;21129;-84
2020/12/18 14:24:58;;;;;;;42.57;22.40;;;;;;;6.74;82.09;101709.86;5278418;56;21112;-85
2020/12/18 14:30:05;;;;;;;71.63;30.13;;;;;;;6.66;81.71;101716.77;5279156;55;21069;-84
2020/12/18 14:35:10;;;;;;;63.33;27.50;;;;;;;6.66;81.71;101716.77;5278961;55;21128;-82
2020/12/18 14:40:16;;;;;;;42.10;22.63;;;;;;;6.65;81.76;101729.52;5178400;55;1136591;-82
2020/12/18 14:45:21;;;;;;;80.30;42.00;;;;;;;6.56;81.88;101739.11;5177982;55;1138610;-85
2020/12/18 14:50:27;;;;;;;46.67;25.40;;;;;;;6.53;81.85;101742.72;5279132;56;21121;-84
2020/12/18 14:55:36;;;;;;;90.23;41.23;;;;;;;6.52;81.89;101741.00;5279007;56;21166;-84
2020/12/18 15:00:45;;;;;;;111.17;55.50;;;;;;;6.55;82.02;101734.31;5239443;55;1136505;-84
2020/12/18 15:05:52;;;;;;;80.07;41.97;;;;;;;6.55;82.31;101738.71;5178697;55;1142452;-84
2020/12/18 15:10:58;;;;;;;140.17;68.27;;;;;;;6.52;81.94;101744.09;5219340;55;1138205;-84
2020/12/18 15:16:03;;;;;;;71.03;37.03;;;;;;;6.44;81.53;101747.02;5273528;55;21154;-84
2020/12/18 15:21:10;;;;;;;185.00;73.27;;;;;;;6.41;81.49;101748.48;5265715;55;21605;-84
2020/12/18 15:26:15;;;;;;;131.50;56.47;;;;;;;6.37;81.62;101765.28;5265607;56;21258;-84
2020/12/18 15:31:21;;;;;;;301.73;114.37;;;;;;;6.33;81.83;101769.80;5265813;56;21617;-84
2020/12/18 15:36:27;;;;;;;196.37;76.33;;;;;;;6.27;81.67;101766.54;5245599;56;1138292;-85
2020/12/18 15:41:32;;;;;;;59.27;28.57;;;;;;;6.27;81.81;101770.48;5205189;56;1142394;-85
2020/12/18 15:46:38;;;;;;;65.73;31.77;;;;;;;6.22;81.43;101767.20;5265830;56;21598;-84
2020/12/18 15:51:43;;;;;;;217.47;78.70;;;;;;;6.16;81.38;101777.48;5245850;56;1136317;-85
2020/12/18 15:56:52;;;;;;;314.77;102.13;;;;;;;6.08;81.61;101783.97;5164839;55;1142542;-84
2020/12/18 16:01:57;;;;;;;163.50;83.50;;;;;;;6.03;81.61;101783.28;5197074;55;1144488;-86
2020/12/18 16:07:04;;;;;;;92.07;36.43;;;;;;;5.98;81.59;101777.73;5224786;55;1142604;-86
2020/12/18 16:12:11;;;;;;;76.53;33.90;;;;;;;5.93;81.54;101777.53;5164775;55;1140436;-86
2020/12/18 16:17:16;;;;;;;97.17;40.07;;;;;;;5.85;81.67;101786.97;5225482;55;1136347;-84
2020/12/18 16:22:22;;;;;;;73.20;33.03;;;;;;;5.81;81.63;101783.19;5262905;56;21246;-86
2020/12/18 16:27:28;;;;;;;54.07;27.53;;;;;;;5.78;81.64;101786.81;5265562;55;21313;-86
2020/12/18 16:32:38;;;;;;;65.40;30.73;;;;;;;5.75;81.64;101779.50;5265254;56;21287;-86
2020/12/18 16:37:43;;;;;;;66.93;31.20;;;;;;;5.72;81.72;101775.67;5265305;56;21267;-87
2020/12/18 16:42:49;;;;;;;91.80;44.07;;;;;;;5.65;81.37;101769.81;5263272;56;21673;-86
2020/12/18 16:47:55;;;;;;;80.33;45.10;;;;;;;5.58;81.27;101769.17;5264009;56;21287;-86
2020/12/18 16:53:00;;;;;;;82.20;45.73;;;;;;;5.48;81.26;101755.14;5264927;56;21283;-86
2020/12/18 16:58:06;;;;;;;93.50;54.83;;;;;;;5.38;81.25;101764.23;5264963;56;21268;-86
2020/12/18 17:03:11;;;;;;;84.70;48.43;;;;;;;5.35;81.22;101752.57;5264727;56;21264;-86
2020/12/18 17:08:17;;;;;;;86.80;50.43;;;;;;;5.29;81.24;101750.56;5264828;56;21287;-85
2020/12/18 17:13:23;;;;;;;97.33;51.93;;;;;;;5.20;81.31;101743.00;5265004;56;21265;-87
2020/12/18 17:18:28;;;;;;;117.97;59.97;;;;;;;5.17;81.31;101743.14;5265083;56;21286;-85
2020/12/18 17:23:34;;;;;;;195.40;99.70;;;;;;;5.16;81.17;101739.25;5265071;55;21247;-86
2020/12/18 17:28:40;;;;;;;70.53;35.33;;;;;;;5.09;81.13;101742.54;5265223;56;21613;-86
2020/12/18 17:33:45;;;;;;;68.22;39.25;;;;;;;5.00;81.21;101727.14;5185191;55;1134244;-87
2020/12/18 17:38:51;;;;;;;102.93;57.60;;;;;;;4.93;81.21;101722.55;5163993;55;1140487;-88
2020/12/18 17:43:57;;;;;;;75.42;41.05;;;;;;;4.91;81.22;101726.13;5177214;55;1142879;-88
2020/12/18 17:49:03;;;;;;;132.70;73.80;;;;;;;4.86;81.53;101730.25;5149617;55;1138356;-90
2020/12/18 17:54:09;;;;;;;138.10;89.23;;;;;;;4.80;81.56;101726.97;5245036;56;1138383;-89
2020/12/18 17:59:15;;;;;;;90.80;45.57;;;;;;;4.75;81.55;101721.87;5204068;56;1142718;-89
2020/12/18 18:04:20;;;;;;;110.27;59.33;;;;;;;4.75;81.46;101725.80;5158550;55;1140811;-90
2020/12/18 18:09:26;;;;;;;111.47;65.33;;;;;;;4.74;81.63;101713.61;5184700;56;1142871;-90
2020/12/18 18:14:32;;;;;;;91.63;46.63;;;;;;;4.74;81.76;101716.69;5164035;55;1140556;-89
2020/12/18 18:19:37;;;;;;;120.43;54.57;;;;;;;4.75;81.96;101710.53;5192109;55;1138364;-89
2020/12/18 18:24:43;;;;;;;189.70;74.07;;;;;;;4.76;81.57;101700.45;5178257;55;1146184;-90
2020/12/18 18:29:49;;;;;;;194.40;106.37;;;;;;;4.72;81.39;101687.94;5234299;55;1142371;-88
2020/12/18 18:34:57;;;;;;;185.63;119.93;;;;;;;4.72;81.45;101696.25;5177978;55;1144542;-89
2020/12/18 18:40:05;;;;;;;79.87;39.27;;;;;;;4.59;81.42;101696.65;5174483;55;1142395;-89
2020/12/18 18:45:12;;;;;;;52.67;26.13;;;;;;;4.52;81.35;101696.92;5214391;55;1140655;-89
2020/12/18 18:50:19;;;;;;;77.60;34.10;;;;;;;4.51;81.41;101694.76;5175716;55;1140441;-90
2020/12/18 18:55:28;;;;;;;65.43;33.20;;;;;;;4.47;81.56;101690.52;5167094;55;1138423;-88
2020/12/18 19:00:33;;;;;;;51.53;26.93;;;;;;;4.36;81.42;101673.45;5184464;55;1138261;-91
2020/12/18 19:05:40;;;;;;;54.60;24.87;;;;;;;4.28;81.50;101682.86;5177271;55;1138652;-88
2020/12/18 19:10:45;;;;;;;53.93;24.70;;;;;;;4.23;81.66;101677.80;5234042;55;1140475;-90
2020/12/18 19:15:51;;;;;;;51.70;27.95;;;;;;;4.23;81.84;101680.87;5189286;56;1140486;-88
2020/12/18 19:20:56;;;;;;;74.50;42.23;;;;;;;4.18;81.96;101678.39;5171187;55;1138403;-88
2020/12/18 19:26:02;;;;;;;77.80;44.20;;;;;;;4.18;82.19;101687.55;5217280;55;1138446;-88
2020/12/18 19:31:07;;;;;;;84.90;39.03;;;;;;;4.19;81.96;101674.87;5154516;55;1138705;-89
2020/12/18 19:36:13;;;;;;;65.20;34.38;;;;;;;4.23;81.99;101671.25;5177358;55;1141223;-88
2020/12/18 19:41:19;;;;;;;54.85;26.75;;;;;;;4.28;82.03;101684.66;5177307;55;1138327;-89
2020/12/18 19:46:25;;;;;;;67.37;30.73;;;;;;;4.24;81.92;101695.67;5259402;56;1136404;-89
2020/12/18 19:51:31;;;;;;;62.20;30.43;;;;;;;4.17;81.63;101698.94;5279620;56;21078;-88
2020/12/18 19:56:39;;;;;;;55.10;26.67;;;;;;;4.10;81.52;101699.20;5279464;56;21097;-91
2020/12/18 20:01:45;;;;;;;48.30;22.87;;;;;;;4.03;81.62;101705.52;5178973;55;1134434;-88
2020/12/18 20:06:50;;;;;;;60.80;26.57;;;;;;;3.90;81.68;101705.05;5199469;55;1138335;-88
2020/12/18 20:11:56;;;;;;;54.73;24.70;;;;;;;3.82;81.67;101711.81;5176036;55;1138428;-88
2020/12/18 20:17:01;;;;;;;67.90;35.13;;;;;;;3.80;81.81;101712.79;5178663;55;1140399;-87
2020/12/18 20:22:07;;;;;;;66.93;33.50;;;;;;;3.74;82.00;101717.74;5195200;55;1138318;-87
2020/12/18 20:27:13;;;;;;;64.60;31.33;;;;;;;3.68;82.07;101724.45;5181019;56;1138382;-88
2020/12/18 20:32:18;;;;;;;83.17;34.17;;;;;;;3.67;82.05;101738.88;5180893;55;1138292;-87
2020/12/18 20:37:35;;;;;;;141.35;60.08;;;;;;;3.68;82.04;101735.37;5261991;56;1138384;-88
2020/12/18 20:42:42;;;;;;;96.23;47.07;;;;;;;3.71;82.17;101732.67;5220595;55;1142730;-89
2020/12/18 20:47:50;;;;;;;99.30;43.40;;;;;;;3.72;82.23;101719.55;5181141;55;1138430;-89
2020/12/18 20:52:54;;;;;;;82.33;38.93;;;;;;;3.73;82.13;101717.34;5261675;55;1136431;-89
2020/12/18 20:58:00;;;;;;;86.00;41.60;;;;;;;3.69;82.09;101736.64;5280423;56;21131;-89
2020/12/18 21:03:06;;;;;;;109.07;49.63;;;;;;;3.71;81.98;101739.21;5260941;55;1134276;-89
2020/12/18 21:08:12;;;;;;;158.37;64.57;;;;;;;3.72;81.55;101749.63;5180081;55;1142694;-89
2020/12/18 21:13:17;;;;;;;207.50;80.47;;;;;;;3.75;81.88;101744.77;5200593;55;1140401;-89
2020/12/18 21:18:23;;;;;;;266.97;96.13;;;;;;;3.71;81.89;101741.38;5260724;56;21069;-89
2020/12/18 21:23:28;;;;;;;315.70;128.90;;;;;;;3.71;81.61;101743.13;5188339;55;1136120;-90
2020/12/18 21:28:34;;;;;;;97.27;45.03;;;;;;;3.61;81.00;101732.55;5168577;55;1142405;-89
2020/12/18 21:33:39;;;;;;;70.77;30.17;;;;;;;3.51;80.95;101735.89;5269230;56;21069;-87
2020/12/18 21:38:50;;;;;;;57.70;27.47;;;;;;;3.34;80.95;101734.20;5269044;56;21151;-89
2020/12/18 21:43:56;;;;;;;72.17;29.83;;;;;;;3.16;81.22;101731.20;5269369;56;21065;-89
2020/12/18 21:49:02;;;;;;;68.40;35.37;;;;;;;3.10;81.50;101726.13;5269451;56;21120;-89
2020/12/18 21:54:07;;;;;;;99.50;48.50;;;;;;;3.08;81.61;101726.62;5268972;55;21148;-89
2020/12/18 21:59:13;;;;;;;63.70;29.83;;;;;;;3.08;81.89;101723.14;5268887;56;21077;-89
2020/12/18 22:04:18;;;;;;;56.30;26.13;;;;;;;3.04;81.86;101731.99;5269904;56;21082;-89
2020/12/18 22:09:24;;;;;;;65.50;28.63;;;;;;;2.94;81.73;101736.59;5270832;56;21120;-89
2020/12/18 22:14:29;;;;;;;68.97;30.67;;;;;;;2.92;81.87;101740.99;5269114;56;21156;-89
2020/12/18 22:19:35;;;;;;;204.60;96.43;;;;;;;2.93;81.97;101734.02;5249426;55;1133985;-89
2020/12/18 22:24:41;;;;;;;119.80;58.57;;;;;;;2.95;82.30;101736.14;5176707;55;1140729;-88
2020/12/18 22:29:46;;;;;;;130.93;57.63;;;;;;;3.01;82.58;101737.30;5220669;56;1140397;-88
2020/12/18 22:34:52;;;;;;;97.20;43.83;;;;;;;3.04;82.40;101736.77;5180869;55;1140682;-89
2020/12/18 22:39:58;;;;;;;109.93;53.50;;;;;;;3.07;81.97;101726.20;5201644;55;1138259;-89
2020/12/18 22:45:05;;;;;;;147.13;72.97;;;;;;;3.10;81.62;101724.83;5281429;55;21092;-89
2020/12/18 22:50:11;;;;;;;258.30;141.00;;;;;;;3.07;81.36;101718.81;5282396;55;21148;-89
2020/12/18 22:55:16;;;;;;;177.93;81.20;;;;;;;2.89;80.70;101711.05;5283058;56;21115;-89
2020/12/18 23:00:23;;;;;;;162.37;76.30;;;;;;;2.76;80.81;101703.11;5281025;55;21131;-88
2020/12/18 23:05:29;;;;;;;120.57;50.37;;;;;;;2.66;80.48;101697.28;5281796;56;21141;-89
2020/12/18 23:10:34;;;;;;;176.70;64.90;;;;;;;2.57;80.18;101696.22;5282885;56;21133;-89
2020/12/18 23:15:40;;;;;;;155.73;65.30;;;;;;;2.51;80.47;101700.28;5283152;56;21495;-89